Onekama, MI

8:21 PM EDT on August 29, 2015 (GMT -0400)
Lake Michigan Shore Onekama Twp | | Change Station
CLOSE
Current Station
Personal Weather Station
Location: Manistee, MI
Elevation: 686 ft
Nearby Weather Stations

Elev 686 ft 44.35 °N, 86.26 °W | Updated 3 minutes ago

Mostly Cloudy
Mostly Cloudy
65.8 °F
Feels Like 65.8 °F
N
1.0
Wind Variable Wind from NW
Gusts 3.0 mph

Today
High -- | Low -- °F
--% Chance of Precip.
Yesterday
High -- | Low -- °F
Precip. -- in
7:03 AM 8:26 PM
Full, 100% visible
Pressure 30.05 in
Visibility 10.0 miles
Clouds Few 2200 ft
Overcast 3500 ft
Dew Point 63 °F
Humidity 91%
Rainfall 0.36 in
Snow Depth Not available.
UV 0.0 out of 12
Pollen 9.00 out of 12
Air Quality Not available.
Flu Activity Not available.
METAR KMBL 300015Z AUTO 00000KT 10SM FEW022 OVC035 19/15 A3005 RMK AO1
Pressure 30.05 in
Visibility 10.0 miles
Clouds Few 2200 ft
Overcast 3500 ft
Dew Point 63 °F
Humidity 91%
Rainfall 0.36 in
Snow Depth Not available.
UV 0.0 out of 12
Pollen 9.00 out of 12
Air Quality Not available.
Flu Activity Not available.
METAR KMBL 300015Z AUTO 00000KT 10SM FEW022 OVC035 19/15 A3005 RMK AO1
Nowcast | as of 8:00 PM EDT on August 29, 2015

At 9 PM...mostly cloudy. Temperature 66. Light winds. At 11 PM...mostly cloudy. Temperature 64. Light winds. At 1 am...partly cloudy. Patchy fog. Temperature 63. Light winds. At 3 am...partly cloudy. Patchy fog. Temperature 62. Light winds.

×

10-Day Weather Forecast

×

Almanac

Astronomy

Aug. 29, 2015 Rise Set
Actual Time
Civil Twilight
Nautical Twilight
Astronomical Twilight
Moon
Length of Visible Light
Length of Day
Tomorrow will be .
, % of the Moon is Illuminated

Today's Extremes

State Highs State Lows

Community

WunderPhotos

Upload Photos

1,850,794 photos uploaded!

WunderBlogs® & News

Nearby

Air Quality

  Air Quality AQ Index Pollutant
Not available.

Snow Depth

Station Depth Elevation

Earthquake Activity

City Distance Mag. Time & Date
Minimum magnitude displayed is 2.5.

Coastal Water Temperatures

Place Temperature

Stations

Nearby Weather Stations

Station Location Temp. Windchill Dew Point Humidity Wind Precip. Elev Updated Type